sensor_id;sensor_type;location;lat;lon;timestamp;P1;P2;P0
51258;PMS7003;37327;54.254;18.504;2022-07-22T00:00:34;19;18;17
51258;PMS7003;37327;54.254;18.504;2022-07-22T00:03:40;21;18;15
51258;PMS7003;37327;54.254;18.504;2022-07-22T00:06:52;17;17;16
51258;PMS7003;37327;54.254;18.504;2022-07-22T00:10:02;18;17;16
51258;PMS7003;37327;54.254;18.504;2022-07-22T00:13:08;21;20;18
51258;PMS7003;37327;54.254;18.504;2022-07-22T00:16:38;18;16;14
51258;PMS7003;37327;54.254;18.504;2022-07-22T00:19:51;17;17;14
51258;PMS7003;37327;54.254;18.504;2022-07-22T00:23:05;17;17;15
51258;PMS7003;37327;54.254;18.504;2022-07-22T00:26:16;17;17;16
51258;PMS7003;37327;54.254;18.504;2022-07-22T00:29:27;16;15;12
51258;PMS7003;37327;54.254;18.504;2022-07-22T00:32:39;19;18;17
51258;PMS7003;37327;54.254;18.504;2022-07-22T00:35:48;17;17;15
51258;PMS7003;37327;54.254;18.504;2022-07-22T00:39:03;18;17;16
51258;PMS7003;37327;54.254;18.504;2022-07-22T00:42:14;18;17;15
51258;PMS7003;37327;54.254;18.504;2022-07-22T00:45:43;20;20;17
51258;PMS7003;37327;54.254;18.504;2022-07-22T00:48:48;21;21;17
51258;PMS7003;37327;54.254;18.504;2022-07-22T00:51:59;16;14;13
51258;PMS7003;37327;54.254;18.504;2022-07-22T00:55:12;21;19;17
51258;PMS7003;37327;54.254;18.504;2022-07-22T00:58:25;17;16;14
51258;PMS7003;37327;54.254;18.504;2022-07-22T01:01:56;16;15;14
51258;PMS7003;37327;54.254;18.504;2022-07-22T01:05:08;18;18;16
51258;PMS7003;37327;54.254;18.504;2022-07-22T01:08:21;13;12;10
51258;PMS7003;37327;54.254;18.504;2022-07-22T01:11:35;17;16;15
51258;PMS7003;37327;54.254;18.504;2022-07-22T01:14:39;17;16;14
51258;PMS7003;37327;54.254;18.504;2022-07-22T01:17:49;20;19;15
51258;PMS7003;37327;54.254;18.504;2022-07-22T01:21:20;16;15;14
51258;PMS7003;37327;54.254;18.504;2022-07-22T01:24:31;16;16;14
51258;PMS7003;37327;54.254;18.504;2022-07-22T01:27:43;17;17;15
51258;PMS7003;37327;54.254;18.504;2022-07-22T01:30:58;15;14;13
51258;PMS7003;37327;54.254;18.504;2022-07-22T01:34:03;17;16;15
51258;PMS7003;37327;54.254;18.504;2022-07-22T01:37:39;17;17;15
51258;PMS7003;37327;54.254;18.504;2022-07-22T01:40:49;18;18;17
51258;PMS7003;37327;54.254;18.504;2022-07-22T01:43:54;14;13;10
51258;PMS7003;37327;54.254;18.504;2022-07-22T01:47:05;21;20;17
51258;PMS7003;37327;54.254;18.504;2022-07-22T01:50:16;18;18;16
51258;PMS7003;37327;54.254;18.504;2022-07-22T01:53:32;20;18;15
51258;PMS7003;37327;54.254;18.504;2022-07-22T01:56:43;20;17;15
51258;PMS7003;37327;54.254;18.504;2022-07-22T01:59:55;17;17;15
51258;PMS7003;37327;54.254;18.504;2022-07-22T02:03:06;19;18;16
51258;PMS7003;37327;54.254;18.504;2022-07-22T02:06:18;18;18;16
51258;PMS7003;37327;54.254;18.504;2022-07-22T02:09:31;18;17;15
51258;PMS7003;37327;54.254;18.504;2022-07-22T02:12:43;20;19;18
51258;PMS7003;37327;54.254;18.504;2022-07-22T02:15:50;19;18;16
51258;PMS7003;37327;54.254;18.504;2022-07-22T02:19:05;19;19;16
51258;PMS7003;37327;54.254;18.504;2022-07-22T02:22:16;18;17;15
51258;PMS7003;37327;54.254;18.504;2022-07-22T02:25:45;16;15;14
51258;PMS7003;37327;54.254;18.504;2022-07-22T02:28:51;21;21;18
51258;PMS7003;37327;54.254;18.504;2022-07-22T02:32:01;18;17;14
51258;PMS7003;37327;54.254;18.504;2022-07-22T02:35:06;20;20;17
51258;PMS7003;37327;54.254;18.504;2022-07-22T02:38:16;18;18;16
51258;PMS7003;37327;54.254;18.504;2022-07-22T02:41:22;18;18;16
51258;PMS7003;37327;54.254;18.504;2022-07-22T02:44:27;20;17;15
51258;PMS7003;37327;54.254;18.504;2022-07-22T02:50:52;17;16;14
51258;PMS7003;37327;54.254;18.504;2022-07-22T02:54:23;16;16;15
51258;PMS7003;37327;54.254;18.504;2022-07-22T02:57:29;16;16;14
51258;PMS7003;37327;54.254;18.504;2022-07-22T03:00:46;19;18;17
51258;PMS7003;37327;54.254;18.504;2022-07-22T03:03:57;17;16;15
51258;PMS7003;37327;54.254;18.504;2022-07-22T03:07:15;18;16;15
51258;PMS7003;37327;54.254;18.504;2022-07-22T03:10:45;16;15;14
51258;PMS7003;37327;54.254;18.504;2022-07-22T03:13:48;16;15;14
51258;PMS7003;37327;54.254;18.504;2022-07-22T03:16:53;17;17;14
51258;PMS7003;37327;54.254;18.504;2022-07-22T03:20:03;14;14;13
51258;PMS7003;37327;54.254;18.504;2022-07-22T03:23:18;16;15;13
51258;PMS7003;37327;54.254;18.504;2022-07-22T03:26:29;15;15;13
51258;PMS7003;37327;54.254;18.504;2022-07-22T03:29:40;16;15;14
51258;PMS7003;37327;54.254;18.504;2022-07-22T03:33:09;14;14;13
51258;PMS7003;37327;54.254;18.504;2022-07-22T03:36:14;15;15;13
51258;PMS7003;37327;54.254;18.504;2022-07-22T03:39:24;15;14;13
51258;PMS7003;37327;54.254;18.504;2022-07-22T03:42:28;16;14;13
51258;PMS7003;37327;54.254;18.504;2022-07-22T03:45:33;14;14;13
51258;PMS7003;37327;54.254;18.504;2022-07-22T03:48:48;14;13;12
51258;PMS7003;37327;54.254;18.504;2022-07-22T03:51:57;14;14;13
51258;PMS7003;37327;54.254;18.504;2022-07-22T03:55:12;17;16;15
51258;PMS7003;37327;54.254;18.504;2022-07-22T03:58:24;14;14;13
51258;PMS7003;37327;54.254;18.504;2022-07-22T04:01:31;16;13;12
51258;PMS7003;37327;54.254;18.504;2022-07-22T04:04:38;15;15;13
51258;PMS7003;37327;54.254;18.504;2022-07-22T04:07:49;16;13;11
51258;PMS7003;37327;54.254;18.504;2022-07-22T04:11:00;16;14;13
51258;PMS7003;37327;54.254;18.504;2022-07-22T04:14:12;16;16;14
51258;PMS7003;37327;54.254;18.504;2022-07-22T04:17:23;14;14;13
51258;PMS7003;37327;54.254;18.504;2022-07-22T04:20:34;13;13;11
51258;PMS7003;37327;54.254;18.504;2022-07-22T04:23:46;13;12;12
51258;PMS7003;37327;54.254;18.504;2022-07-22T04:30:14;16;15;13
51258;PMS7003;37327;54.254;18.504;2022-07-22T04:33:28;14;14;13
51258;PMS7003;37327;54.254;18.504;2022-07-22T04:36:40;12;12;11
51258;PMS7003;37327;54.254;18.504;2022-07-22T04:39:51;15;15;13
51258;PMS7003;37327;54.254;18.504;2022-07-22T04:43:02;12;12;11
51258;PMS7003;37327;54.254;18.504;2022-07-22T04:46:31;10;10;9
51258;PMS7003;37327;54.254;18.504;2022-07-22T04:49:36;13;13;12
51258;PMS7003;37327;54.254;18.504;2022-07-22T04:52:47;14;14;12
51258;PMS7003;37327;54.254;18.504;2022-07-22T04:55:57;13;13;11
51258;PMS7003;37327;54.254;18.504;2022-07-22T05:02:18;13;13;11
51258;PMS7003;37327;54.254;18.504;2022-07-22T05:05:28;14;13;12
51258;PMS7003;37327;54.254;18.504;2022-07-22T05:08:40;15;14;13
51258;PMS7003;37327;54.254;18.504;2022-07-22T05:11:50;13;13;11
51258;PMS7003;37327;54.254;18.504;2022-07-22T05:15:02;15;15;13
51258;PMS7003;37327;54.254;18.504;2022-07-22T05:18:17;14;14;12
51258;PMS7003;37327;54.254;18.504;2022-07-22T05:21:49;14;14;11
51258;PMS7003;37327;54.254;18.504;2022-07-22T05:24:59;14;13;12
51258;PMS7003;37327;54.254;18.504;2022-07-22T05:28:11;15;14;12
51258;PMS7003;37327;54.254;18.504;2022-07-22T05:31:23;15;14;12
51258;PMS7003;37327;54.254;18.504;2022-07-22T05:34:33;14;14;12
51258;PMS7003;37327;54.254;18.504;2022-07-22T05:38:02;14;13;12
51258;PMS7003;37327;54.254;18.504;2022-07-22T05:41:11;12;11;10
51258;PMS7003;37327;54.254;18.504;2022-07-22T05:44:22;15;14;13
51258;PMS7003;37327;54.254;18.504;2022-07-22T05:47:36;11;10;6
51258;PMS7003;37327;54.254;18.504;2022-07-22T05:50:49;15;15;13
51258;PMS7003;37327;54.254;18.504;2022-07-22T05:53:57;16;16;13
51258;PMS7003;37327;54.254;18.504;2022-07-22T05:57:06;17;16;14
51258;PMS7003;37327;54.254;18.504;2022-07-22T06:00:18;17;16;15
51258;PMS7003;37327;54.254;18.504;2022-07-22T06:03:28;17;17;15
51258;PMS7003;37327;54.254;18.504;2022-07-22T06:06:58;17;16;15
51258;PMS7003;37327;54.254;18.504;2022-07-22T06:10:11;16;16;14
51258;PMS7003;37327;54.254;18.504;2022-07-22T06:13:22;18;17;15
51258;PMS7003;37327;54.254;18.504;2022-07-22T06:16:32;18;17;15
51258;PMS7003;37327;54.254;18.504;2022-07-22T06:19:39;15;15;13
51258;PMS7003;37327;54.254;18.504;2022-07-22T06:22:54;17;17;15
51258;PMS7003;37327;54.254;18.504;2022-07-22T06:26:14;18;17;15
51258;PMS7003;37327;54.254;18.504;2022-07-22T06:29:29;13;12;12
51258;PMS7003;37327;54.254;18.504;2022-07-22T06:32:40;17;16;14
51258;PMS7003;37327;54.254;18.504;2022-07-22T06:35:52;16;16;14
51258;PMS7003;37327;54.254;18.504;2022-07-22T06:39:07;18;18;15
51258;PMS7003;37327;54.254;18.504;2022-07-22T06:42:36;18;18;14
51258;PMS7003;37327;54.254;18.504;2022-07-22T06:45:42;17;17;14
51258;PMS7003;37327;54.254;18.504;2022-07-22T06:48:53;18;18;14
51258;PMS7003;37327;54.254;18.504;2022-07-22T06:51:58;16;16;13
51258;PMS7003;37327;54.254;18.504;2022-07-22T06:55:09;16;15;13
51258;PMS7003;37327;54.254;18.504;2022-07-22T06:58:20;17;16;13
51258;PMS7003;37327;54.254;18.504;2022-07-22T07:01:36;15;15;13
51258;PMS7003;37327;54.254;18.504;2022-07-22T07:04:42;16;16;14
51258;PMS7003;37327;54.254;18.504;2022-07-22T07:07:56;17;16;14
51258;PMS7003;37327;54.254;18.504;2022-07-22T07:11:26;19;17;15
51258;PMS7003;37327;54.254;18.504;2022-07-22T07:14:39;15;15;14
51258;PMS7003;37327;54.254;18.504;2022-07-22T07:17:44;17;17;14
51258;PMS7003;37327;54.254;18.504;2022-07-22T07:20:56;14;14;12
51258;PMS7003;37327;54.254;18.504;2022-07-22T07:24:00;16;15;13
51258;PMS7003;37327;54.254;18.504;2022-07-22T07:27:08;18;16;14
51258;PMS7003;37327;54.254;18.504;2022-07-22T07:30:16;15;14;13
51258;PMS7003;37327;54.254;18.504;2022-07-22T07:33:22;18;17;14
51258;PMS7003;37327;54.254;18.504;2022-07-22T07:36:52;16;15;14
51258;PMS7003;37327;54.254;18.504;2022-07-22T07:40:07;17;17;15
51258;PMS7003;37327;54.254;18.504;2022-07-22T07:43:14;17;16;14
51258;PMS7003;37327;54.254;18.504;2022-07-22T07:46:19;18;17;16
51258;PMS7003;37327;54.254;18.504;2022-07-22T07:49:33;19;19;16
51258;PMS7003;37327;54.254;18.504;2022-07-22T07:52:45;18;17;14
51258;PMS7003;37327;54.254;18.504;2022-07-22T07:56:01;15;15;13
51258;PMS7003;37327;54.254;18.504;2022-07-22T07:59:12;17;16;15
51258;PMS7003;37327;54.254;18.504;2022-07-22T08:02:31;16;16;13
51258;PMS7003;37327;54.254;18.504;2022-07-22T08:05:37;16;16;15
51258;PMS7003;37327;54.254;18.504;2022-07-22T08:12:27;13;13;11
51258;PMS7003;37327;54.254;18.504;2022-07-22T08:15:40;17;17;14
51258;PMS7003;37327;54.254;18.504;2022-07-22T08:18:52;16;16;14
51258;PMS7003;37327;54.254;18.504;2022-07-22T08:22:10;20;17;15
51258;PMS7003;37327;54.254;18.504;2022-07-22T08:32:20;18;18;16
51258;PMS7003;37327;54.254;18.504;2022-07-22T08:35:30;19;19;16
51258;PMS7003;37327;54.254;18.504;2022-07-22T08:38:59;19;19;17
51258;PMS7003;37327;54.254;18.504;2022-07-22T08:42:04;19;19;16
51258;PMS7003;37327;54.254;18.504;2022-07-22T08:45:18;18;17;14
51258;PMS7003;37327;54.254;18.504;2022-07-22T08:48:30;16;15;13
51258;PMS7003;37327;54.254;18.504;2022-07-22T08:51:42;15;15;13
51258;PMS7003;37327;54.254;18.504;2022-07-22T08:54:56;16;16;15
51258;PMS7003;37327;54.254;18.504;2022-07-22T08:58:07;14;11;9
51258;PMS7003;37327;54.254;18.504;2022-07-22T09:06:29;14;14;13
51258;PMS7003;37327;54.254;18.504;2022-07-22T09:09:44;12;11;11
51258;PMS7003;37327;54.254;18.504;2022-07-22T09:13:08;13;12;12
51258;PMS7003;37327;54.254;18.504;2022-07-22T09:19:44;12;12;11
51258;PMS7003;37327;54.254;18.504;2022-07-22T09:22:55;13;12;12
51258;PMS7003;37327;54.254;18.504;2022-07-22T09:26:03;13;13;12
51258;PMS7003;37327;54.254;18.504;2022-07-22T09:29:14;14;14;12
51258;PMS7003;37327;54.254;18.504;2022-07-22T09:35:44;18;15;13
51258;PMS7003;37327;54.254;18.504;2022-07-22T09:39:00;20;19;17
51258;PMS7003;37327;54.254;18.504;2022-07-22T09:42:16;19;15;14
51258;PMS7003;37327;54.254;18.504;2022-07-22T09:45:28;13;13;12
51258;PMS7003;37327;54.254;18.504;2022-07-22T09:52:20;17;15;14
51258;PMS7003;37327;54.254;18.504;2022-07-22T09:55:40;13;13;11
51258;PMS7003;37327;54.254;18.504;2022-07-22T09:58:56;13;13;12
51258;PMS7003;37327;54.254;18.504;2022-07-22T10:02:07;15;14;13
51258;PMS7003;37327;54.254;18.504;2022-07-22T10:05:21;15;13;13
51258;PMS7003;37327;54.254;18.504;2022-07-22T10:08:35;13;13;12
51258;PMS7003;37327;54.254;18.504;2022-07-22T10:11:52;10;10;10
51258;PMS7003;37327;54.254;18.504;2022-07-22T10:15:01;13;12;11
51258;PMS7003;37327;54.254;18.504;2022-07-22T10:18:12;14;13;12
51258;PMS7003;37327;54.254;18.504;2022-07-22T10:28:07;12;12;11
51258;PMS7003;37327;54.254;18.504;2022-07-22T10:31:30;10;10;9
51258;PMS7003;37327;54.254;18.504;2022-07-22T10:34:54;12;12;11
51258;PMS7003;37327;54.254;18.504;2022-07-22T10:38:00;12;12;11
51258;PMS7003;37327;54.254;18.504;2022-07-22T10:41:10;11;11;10
51258;PMS7003;37327;54.254;18.504;2022-07-22T10:47:59;12;12;11
51258;PMS7003;37327;54.254;18.504;2022-07-22T10:51:15;13;13;12
51258;PMS7003;37327;54.254;18.504;2022-07-22T10:54:29;13;13;12
51258;PMS7003;37327;54.254;18.504;2022-07-22T10:57:41;13;11;11
51258;PMS7003;37327;54.254;18.504;2022-07-22T11:01:11;13;13;12
51258;PMS7003;37327;54.254;18.504;2022-07-22T11:04:26;11;11;10
51258;PMS7003;37327;54.254;18.504;2022-07-22T11:10:51;12;12;11
51258;PMS7003;37327;54.254;18.504;2022-07-22T11:14:02;11;11;11
51258;PMS7003;37327;54.254;18.504;2022-07-22T11:17:15;11;11;11
51258;PMS7003;37327;54.254;18.504;2022-07-22T11:20:30;11;11;10
51258;PMS7003;37327;54.254;18.504;2022-07-22T11:23:42;11;11;10
51258;PMS7003;37327;54.254;18.504;2022-07-22T11:26:56;10;10;10
51258;PMS7003;37327;54.254;18.504;2022-07-22T11:30:04;11;11;10
51258;PMS7003;37327;54.254;18.504;2022-07-22T11:33:16;12;11;10
51258;PMS7003;37327;54.254;18.504;2022-07-22T11:36:28;11;11;11
51258;PMS7003;37327;54.254;18.504;2022-07-22T11:39:48;11;11;10
51258;PMS7003;37327;54.254;18.504;2022-07-22T11:43:49;11;10;9
51258;PMS7003;37327;54.254;18.504;2022-07-22T11:46:44;9;9;8
51258;PMS7003;37327;54.254;18.504;2022-07-22T11:49:56;10;10;9
51258;PMS7003;37327;54.254;18.504;2022-07-22T11:53:08;10;10;9
51258;PMS7003;37327;54.254;18.504;2022-07-22T11:56:19;10;8;7
51258;PMS7003;37327;54.254;18.504;2022-07-22T11:59:30;13;10;9
51258;PMS7003;37327;54.254;18.504;2022-07-22T12:02:41;10;9;9
51258;PMS7003;37327;54.254;18.504;2022-07-22T12:05:52;6;6;6
51258;PMS7003;37327;54.254;18.504;2022-07-22T12:09:08;9;9;8
51258;PMS7003;37327;54.254;18.504;2022-07-22T12:12:19;9;9;8
51258;PMS7003;37327;54.254;18.504;2022-07-22T12:15:40;10;10;9
51258;PMS7003;37327;54.254;18.504;2022-07-22T12:18:51;9;9;8
51258;PMS7003;37327;54.254;18.504;2022-07-22T12:22:01;10;10;9
51258;PMS7003;37327;54.254;18.504;2022-07-22T12:25:13;9;9;8
51258;PMS7003;37327;54.254;18.504;2022-07-22T12:28:20;8;8;8
51258;PMS7003;37327;54.254;18.504;2022-07-22T12:31:50;9;8;7
51258;PMS7003;37327;54.254;18.504;2022-07-22T12:35:04;8;8;7
51258;PMS7003;37327;54.254;18.504;2022-07-22T12:41:26;8;8;7
51258;PMS7003;37327;54.254;18.504;2022-07-22T12:44:38;8;8;8
51258;PMS7003;37327;54.254;18.504;2022-07-22T12:48:05;8;8;8
51258;PMS7003;37327;54.254;18.504;2022-07-22T12:51:12;9;8;8
51258;PMS7003;37327;54.254;18.504;2022-07-22T12:54:20;12;10;8
51258;PMS7003;37327;54.254;18.504;2022-07-22T12:57:50;7;7;6
51258;PMS7003;37327;54.254;18.504;2022-07-22T13:01:02;7;7;7
51258;PMS7003;37327;54.254;18.504;2022-07-22T13:04:08;9;8;7
51258;PMS7003;37327;54.254;18.504;2022-07-22T13:07:20;8;7;7
51258;PMS7003;37327;54.254;18.504;2022-07-22T13:10:31;7;6;6
51258;PMS7003;37327;54.254;18.504;2022-07-22T13:13:41;4;4;4
51258;PMS7003;37327;54.254;18.504;2022-07-22T13:16:50;5;5;4
51258;PMS7003;37327;54.254;18.504;2022-07-22T13:20:20;7;7;6
51258;PMS7003;37327;54.254;18.504;2022-07-22T13:23:25;6;6;6
51258;PMS7003;37327;54.254;18.504;2022-07-22T13:26:34;9;8;7
51258;PMS7003;37327;54.254;18.504;2022-07-22T13:29:46;6;6;6
51258;PMS7003;37327;54.254;18.504;2022-07-22T13:32:57;9;9;8
51258;PMS7003;37327;54.254;18.504;2022-07-22T13:36:08;8;8;7
51258;PMS7003;37327;54.254;18.504;2022-07-22T13:39:28;8;8;8
51258;PMS7003;37327;54.254;18.504;2022-07-22T13:42:33;8;8;7
51258;PMS7003;37327;54.254;18.504;2022-07-22T13:45:46;7;7;6
51258;PMS7003;37327;54.254;18.504;2022-07-22T13:48:58;7;7;6
51258;PMS7003;37327;54.254;18.504;2022-07-22T13:52:09;9;9;8
51258;PMS7003;37327;54.254;18.504;2022-07-22T13:58:41;8;8;7
51258;PMS7003;37327;54.254;18.504;2022-07-22T14:02:12;9;7;6
51258;PMS7003;37327;54.254;18.504;2022-07-22T14:05:30;7;7;7
51258;PMS7003;37327;54.254;18.504;2022-07-22T14:08:43;8;8;8
51258;PMS7003;37327;54.254;18.504;2022-07-22T14:11:57;8;8;7
51258;PMS7003;37327;54.254;18.504;2022-07-22T14:15:09;10;9;9
51258;PMS7003;37327;54.254;18.504;2022-07-22T14:18:22;9;9;7
51258;PMS7003;37327;54.254;18.504;2022-07-22T14:21:40;10;10;9
51258;PMS7003;37327;54.254;18.504;2022-07-22T14:24:55;9;9;8
51258;PMS7003;37327;54.254;18.504;2022-07-22T14:28:07;7;7;7
51258;PMS7003;37327;54.254;18.504;2022-07-22T14:31:16;8;7;7
51258;PMS7003;37327;54.254;18.504;2022-07-22T14:37:46;7;7;6
51258;PMS7003;37327;54.254;18.504;2022-07-22T14:41:01;9;8;7
51258;PMS7003;37327;54.254;18.504;2022-07-22T14:44:15;9;9;8
51258;PMS7003;37327;54.254;18.504;2022-07-22T14:47:27;6;6;5
51258;PMS7003;37327;54.254;18.504;2022-07-22T14:53:54;6;5;4
51258;PMS7003;37327;54.254;18.504;2022-07-22T14:57:25;11;10;9
51258;PMS7003;37327;54.254;18.504;2022-07-22T15:00:37;11;10;10
51258;PMS7003;37327;54.254;18.504;2022-07-22T15:03:49;12;11;11
51258;PMS7003;37327;54.254;18.504;2022-07-22T15:07:00;14;13;11
51258;PMS7003;37327;54.254;18.504;2022-07-22T15:10:06;14;13;11
51258;PMS7003;37327;54.254;18.504;2022-07-22T15:13:12;14;14;14
51258;PMS7003;37327;54.254;18.504;2022-07-22T15:16:26;15;15;14
51258;PMS7003;37327;54.254;18.504;2022-07-22T15:19:36;15;15;13
51258;PMS7003;37327;54.254;18.504;2022-07-22T15:22:42;14;14;13
51258;PMS7003;37327;54.254;18.504;2022-07-22T15:25:54;15;15;13
51258;PMS7003;37327;54.254;18.504;2022-07-22T15:29:10;16;16;15
51258;PMS7003;37327;54.254;18.504;2022-07-22T15:32:40;15;15;14
51258;PMS7003;37327;54.254;18.504;2022-07-22T15:35:54;14;14;13
51258;PMS7003;37327;54.254;18.504;2022-07-22T15:38:59;11;11;11
51258;PMS7003;37327;54.254;18.504;2022-07-22T15:42:11;14;14;13
51258;PMS7003;37327;54.254;18.504;2022-07-22T15:45:27;14;13;12
51258;PMS7003;37327;54.254;18.504;2022-07-22T15:48:44;13;13;12
51258;PMS7003;37327;54.254;18.504;2022-07-22T15:51:55;14;13;12
51258;PMS7003;37327;54.254;18.504;2022-07-22T15:55:08;13;13;12
51258;PMS7003;37327;54.254;18.504;2022-07-22T15:58:20;18;17;15
51258;PMS7003;37327;54.254;18.504;2022-07-22T16:01:35;15;14;13
51258;PMS7003;37327;54.254;18.504;2022-07-22T16:05:06;10;10;9
51258;PMS7003;37327;54.254;18.504;2022-07-22T16:08:22;12;12;11
51258;PMS7003;37327;54.254;18.504;2022-07-22T16:11:38;14;13;11
51258;PMS7003;37327;54.254;18.504;2022-07-22T16:14:56;14;10;9
51258;PMS7003;37327;54.254;18.504;2022-07-22T16:18:09;9;8;8
51258;PMS7003;37327;54.254;18.504;2022-07-22T16:21:22;10;10;9
51258;PMS7003;37327;54.254;18.504;2022-07-22T16:24:38;7;7;6
51258;PMS7003;37327;54.254;18.504;2022-07-22T16:27:50;6;6;6
51258;PMS7003;37327;54.254;18.504;2022-07-22T16:31:03;7;7;7
51258;PMS7003;37327;54.254;18.504;2022-07-22T16:34:17;7;7;7
51258;PMS7003;37327;54.254;18.504;2022-07-22T16:37:28;6;6;5
51258;PMS7003;37327;54.254;18.504;2022-07-22T16:41:00;7;7;6
51258;PMS7003;37327;54.254;18.504;2022-07-22T16:44:11;5;5;5
51258;PMS7003;37327;54.254;18.504;2022-07-22T16:47:24;5;5;5
51258;PMS7003;37327;54.254;18.504;2022-07-22T16:50:37;6;6;6
51258;PMS7003;37327;54.254;18.504;2022-07-22T16:53:42;4;4;4
51258;PMS7003;37327;54.254;18.504;2022-07-22T16:56:52;6;6;6
51258;PMS7003;37327;54.254;18.504;2022-07-22T17:00:03;7;7;7
51258;PMS7003;37327;54.254;18.504;2022-07-22T17:03:20;8;8;7
51258;PMS7003;37327;54.254;18.504;2022-07-22T17:06:31;6;6;6
51258;PMS7003;37327;54.254;18.504;2022-07-22T17:09:48;9;9;8
51258;PMS7003;37327;54.254;18.504;2022-07-22T17:13:05;10;10;9
51258;PMS7003;37327;54.254;18.504;2022-07-22T17:16:18;9;8;8
51258;PMS7003;37327;54.254;18.504;2022-07-22T17:19:33;9;8;8
51258;PMS7003;37327;54.254;18.504;2022-07-22T17:22:45;6;6;6
51258;PMS7003;37327;54.254;18.504;2022-07-22T17:25:59;10;9;9
51258;PMS7003;37327;54.254;18.504;2022-07-22T17:29:10;9;9;8
51258;PMS7003;37327;54.254;18.504;2022-07-22T17:32:21;11;9;8
51258;PMS7003;37327;54.254;18.504;2022-07-22T17:35:31;5;5;4
51258;PMS7003;37327;54.254;18.504;2022-07-22T17:38:45;6;6;6
51258;PMS7003;37327;54.254;18.504;2022-07-22T17:42:02;8;8;7
51258;PMS7003;37327;54.254;18.504;2022-07-22T17:45:08;8;8;7
51258;PMS7003;37327;54.254;18.504;2022-07-22T17:48:20;8;8;7
51258;PMS7003;37327;54.254;18.504;2022-07-22T17:51:35;7;7;7
51258;PMS7003;37327;54.254;18.504;2022-07-22T17:54:49;6;6;6
51258;PMS7003;37327;54.254;18.504;2022-07-22T17:58:00;7;7;6
51258;PMS7003;37327;54.254;18.504;2022-07-22T18:01:09;6;5;5
51258;PMS7003;37327;54.254;18.504;2022-07-22T18:04:18;5;5;5
51258;PMS7003;37327;54.254;18.504;2022-07-22T18:07:32;9;8;7
51258;PMS7003;37327;54.254;18.504;2022-07-22T18:17:10;5;5;4
51258;PMS7003;37327;54.254;18.504;2022-07-22T18:20:39;8;8;8
51258;PMS7003;37327;54.254;18.504;2022-07-22T18:23:47;7;7;7
51258;PMS7003;37327;54.254;18.504;2022-07-22T18:27:00;6;6;5
51258;PMS7003;37327;54.254;18.504;2022-07-22T18:30:07;6;6;5
51258;PMS7003;37327;54.254;18.504;2022-07-22T18:33:19;6;6;6
51258;PMS7003;37327;54.254;18.504;2022-07-22T18:36:25;6;6;6
51258;PMS7003;37327;54.254;18.504;2022-07-22T18:39:41;7;6;6
51258;PMS7003;37327;54.254;18.504;2022-07-22T18:43:12;6;6;5
51258;PMS7003;37327;54.254;18.504;2022-07-22T18:46:23;10;7;6
51258;PMS7003;37327;54.254;18.504;2022-07-22T18:49:30;8;7;6
51258;PMS7003;37327;54.254;18.504;2022-07-22T18:52:40;7;7;7
51258;PMS7003;37327;54.254;18.504;2022-07-22T18:55:44;6;6;5
51258;PMS7003;37327;54.254;18.504;2022-07-22T18:58:48;6;6;6
51258;PMS7003;37327;54.254;18.504;2022-07-22T19:02:03;6;6;5
51258;PMS7003;37327;54.254;18.504;2022-07-22T19:05:07;6;6;6
51258;PMS7003;37327;54.254;18.504;2022-07-22T19:08:37;6;6;6
51258;PMS7003;37327;54.254;18.504;2022-07-22T19:11:49;6;6;6
51258;PMS7003;37327;54.254;18.504;2022-07-22T19:15:03;5;5;5
51258;PMS7003;37327;54.254;18.504;2022-07-22T19:18:14;7;7;6
51258;PMS7003;37327;54.254;18.504;2022-07-22T19:21:32;7;7;6
51258;PMS7003;37327;54.254;18.504;2022-07-22T19:24:42;7;6;6
51258;PMS7003;37327;54.254;18.504;2022-07-22T19:27:51;6;6;5
51258;PMS7003;37327;54.254;18.504;2022-07-22T19:31:06;7;7;6
51258;PMS7003;37327;54.254;18.504;2022-07-22T19:37:52;6;6;6
51258;PMS7003;37327;54.254;18.504;2022-07-22T19:40:57;6;5;5
51258;PMS7003;37327;54.254;18.504;2022-07-22T19:44:10;6;6;5
51258;PMS7003;37327;54.254;18.504;2022-07-22T19:47:21;7;7;6
51258;PMS7003;37327;54.254;18.504;2022-07-22T19:50:32;6;6;5
51258;PMS7003;37327;54.254;18.504;2022-07-22T19:53:43;6;5;5
51258;PMS7003;37327;54.254;18.504;2022-07-22T19:56:58;8;7;7
51258;PMS7003;37327;54.254;18.504;2022-07-22T20:00:09;7;6;6
51258;PMS7003;37327;54.254;18.504;2022-07-22T20:03:26;6;5;5
51258;PMS7003;37327;54.254;18.504;2022-07-22T20:06:37;5;5;4
51258;PMS7003;37327;54.254;18.504;2022-07-22T20:09:53;6;6;6
51258;PMS7003;37327;54.254;18.504;2022-07-22T20:13:05;6;6;6
51258;PMS7003;37327;54.254;18.504;2022-07-22T20:16:16;6;5;5
51258;PMS7003;37327;54.254;18.504;2022-07-22T20:19:31;7;7;7
51258;PMS7003;37327;54.254;18.504;2022-07-22T20:22:43;8;7;7
51258;PMS7003;37327;54.254;18.504;2022-07-22T20:25:57;7;7;7
51258;PMS7003;37327;54.254;18.504;2022-07-22T20:29:07;7;7;7
51258;PMS7003;37327;54.254;18.504;2022-07-22T20:32:40;6;6;6
51258;PMS7003;37327;54.254;18.504;2022-07-22T20:35:52;7;7;7
51258;PMS7003;37327;54.254;18.504;2022-07-22T20:39:02;7;7;7
51258;PMS7003;37327;54.254;18.504;2022-07-22T20:42:07;8;8;7
51258;PMS7003;37327;54.254;18.504;2022-07-22T20:45:22;7;7;7
51258;PMS7003;37327;54.254;18.504;2022-07-22T20:48:34;9;9;8
51258;PMS7003;37327;54.254;18.504;2022-07-22T20:51:44;9;9;8
51258;PMS7003;37327;54.254;18.504;2022-07-22T20:55:14;8;8;7
51258;PMS7003;37327;54.254;18.504;2022-07-22T20:58:23;8;8;7
51258;PMS7003;37327;54.254;18.504;2022-07-22T21:01:28;8;8;7
51258;PMS7003;37327;54.254;18.504;2022-07-22T21:04:42;10;9;8
51258;PMS7003;37327;54.254;18.504;2022-07-22T21:07:53;9;8;7
51258;PMS7003;37327;54.254;18.504;2022-07-22T21:11:05;10;9;8
51258;PMS7003;37327;54.254;18.504;2022-07-22T21:14:11;9;8;7
51258;PMS7003;37327;54.254;18.504;2022-07-22T21:17:43;9;8;7
51258;PMS7003;37327;54.254;18.504;2022-07-22T21:20:57;10;9;8
51258;PMS7003;37327;54.254;18.504;2022-07-22T21:24:09;8;8;8
51258;PMS7003;37327;54.254;18.504;2022-07-22T21:27:24;7;7;7
51258;PMS7003;37327;54.254;18.504;2022-07-22T21:30:34;7;7;6
51258;PMS7003;37327;54.254;18.504;2022-07-22T21:34:04;5;5;5
51258;PMS7003;37327;54.254;18.504;2022-07-22T21:37:08;10;10;10
51258;PMS7003;37327;54.254;18.504;2022-07-22T21:40:14;9;9;8
51258;PMS7003;37327;54.254;18.504;2022-07-22T21:43:25;12;9;8
51258;PMS7003;37327;54.254;18.504;2022-07-22T21:46:35;9;8;7
51258;PMS7003;37327;54.254;18.504;2022-07-22T21:49:39;9;9;8
51258;PMS7003;37327;54.254;18.504;2022-07-22T21:52:47;8;8;7
51258;PMS7003;37327;54.254;18.504;2022-07-22T21:55:59;7;7;7